sensor_id;sensor_type;location;lat;lon;timestamp;P1;durP1;ratioP1;P2;durP2;ratioP2
16967;SDS011;64862;54.398;10.126;2023-07-20T00:02:51;2.97;;;1.40;;
16967;SDS011;64862;54.398;10.126;2023-07-20T00:12:55;5.00;;;1.27;;
16967;SDS011;64862;54.398;10.126;2023-07-20T00:22:57;3.53;;;2.03;;
16967;SDS011;64862;54.398;10.126;2023-07-20T00:33:01;3.40;;;1.98;;
16967;SDS011;64862;54.398;10.126;2023-07-20T00:43:03;3.88;;;2.00;;
16967;SDS011;64862;54.398;10.126;2023-07-20T00:53:07;6.22;;;2.00;;
16967;SDS011;64862;54.398;10.126;2023-07-20T01:03:09;3.05;;;1.85;;
16967;SDS011;64862;54.398;10.126;2023-07-20T01:13:13;4.57;;;2.00;;
16967;SDS011;64862;54.398;10.126;2023-07-20T01:23:22;3.95;;;2.10;;
16967;SDS011;64862;54.398;10.126;2023-07-20T01:33:40;2.28;;;1.80;;
16967;SDS011;64862;54.398;10.126;2023-07-20T01:43:45;4.33;;;2.10;;
16967;SDS011;64862;54.398;10.126;2023-07-20T01:53:49;4.43;;;1.70;;
16967;SDS011;64862;54.398;10.126;2023-07-20T02:03:51;6.43;;;2.03;;
16967;SDS011;64862;54.398;10.126;2023-07-20T02:13:55;5.07;;;2.50;;
16967;SDS011;64862;54.398;10.126;2023-07-20T02:23:57;5.70;;;2.50;;
16967;SDS011;64862;54.398;10.126;2023-07-20T02:34:01;5.43;;;2.83;;
16967;SDS011;64862;54.398;10.126;2023-07-20T02:44:04;6.13;;;4.35;;
16967;SDS011;64862;54.398;10.126;2023-07-20T02:54:07;5.85;;;3.20;;
16967;SDS011;64862;54.398;10.126;2023-07-20T03:04:09;6.15;;;3.08;;
16967;SDS011;64862;54.398;10.126;2023-07-20T03:14:13;7.03;;;3.40;;
16967;SDS011;64862;54.398;10.126;2023-07-20T03:24:15;4.53;;;3.10;;
16967;SDS011;64862;54.398;10.126;2023-07-20T03:34:19;5.07;;;2.85;;
16967;SDS011;64862;54.398;10.126;2023-07-20T03:44:21;6.45;;;2.80;;
16967;SDS011;64862;54.398;10.126;2023-07-20T03:54:25;8.48;;;2.70;;
16967;SDS011;64862;54.398;10.126;2023-07-20T04:04:27;8.45;;;2.70;;
16967;SDS011;64862;54.398;10.126;2023-07-20T04:14:31;5.80;;;2.15;;
16967;SDS011;64862;54.398;10.126;2023-07-20T04:24:33;4.90;;;1.92;;
16967;SDS011;64862;54.398;10.126;2023-07-20T04:34:37;5.78;;;2.25;;
16967;SDS011;64862;54.398;10.126;2023-07-20T04:44:40;5.18;;;2.15;;
16967;SDS011;64862;54.398;10.126;2023-07-20T04:54:45;11.30;;;1.90;;
16967;SDS011;64862;54.398;10.126;2023-07-20T05:04:47;5.55;;;1.92;;
16967;SDS011;64862;54.398;10.126;2023-07-20T05:14:51;7.50;;;1.48;;
16967;SDS011;64862;54.398;10.126;2023-07-20T05:24:53;5.07;;;1.30;;
16967;SDS011;64862;54.398;10.126;2023-07-20T05:34:57;5.45;;;1.30;;
16967;SDS011;64862;54.398;10.126;2023-07-20T05:44:59;4.88;;;1.42;;
16967;SDS011;64862;54.398;10.126;2023-07-20T05:55:03;3.83;;;1.33;;
16967;SDS011;64862;54.398;10.126;2023-07-20T06:05:06;7.72;;;1.83;;
16967;SDS011;64862;54.398;10.126;2023-07-20T06:25:31;8.80;;;2.03;;
16967;SDS011;64862;54.398;10.126;2023-07-20T06:35:35;10.15;;;1.90;;
16967;SDS011;64862;54.398;10.126;2023-07-20T06:45:37;6.30;;;2.05;;
16967;SDS011;64862;54.398;10.126;2023-07-20T06:55:43;10.40;;;2.10;;
16967;SDS011;64862;54.398;10.126;2023-07-20T07:05:45;8.05;;;1.90;;
16967;SDS011;64862;54.398;10.126;2023-07-20T07:15:48;11.65;;;2.00;;
16967;SDS011;64862;54.398;10.126;2023-07-20T07:25:50;8.32;;;1.85;;
16967;SDS011;64862;54.398;10.126;2023-07-20T07:35:54;9.60;;;1.75;;
16967;SDS011;64862;54.398;10.126;2023-07-20T07:45:56;14.25;;;2.08;;
16967;SDS011;64862;54.398;10.126;2023-07-20T07:56:00;7.90;;;1.77;;
16967;SDS011;64862;54.398;10.126;2023-07-20T08:06:03;9.23;;;1.88;;
16967;SDS011;64862;54.398;10.126;2023-07-20T08:16:07;10.70;;;2.05;;
16967;SDS011;64862;54.398;10.126;2023-07-20T08:26:09;11.52;;;2.10;;
16967;SDS011;64862;54.398;10.126;2023-07-20T08:36:13;10.48;;;1.90;;
16967;SDS011;64862;54.398;10.126;2023-07-20T08:46:15;7.18;;;1.40;;
16967;SDS011;64862;54.398;10.126;2023-07-20T08:56:19;6.93;;;1.05;;
16967;SDS011;64862;54.398;10.126;2023-07-20T09:06:22;4.63;;;0.98;;
16967;SDS011;64862;54.398;10.126;2023-07-20T09:16:26;3.88;;;0.90;;
16967;SDS011;64862;54.398;10.126;2023-07-20T09:26:29;4.95;;;0.90;;
16967;SDS011;64862;54.398;10.126;2023-07-20T09:36:34;5.07;;;0.57;;
16967;SDS011;64862;54.398;10.126;2023-07-20T09:46:41;2.58;;;0.28;;
16967;SDS011;64862;54.398;10.126;2023-07-20T09:56:45;2.08;;;0.30;;
16967;SDS011;64862;54.398;10.126;2023-07-20T10:06:48;2.97;;;0.40;;
16967;SDS011;64862;54.398;10.126;2023-07-20T10:16:57;5.45;;;0.50;;
16967;SDS011;64862;54.398;10.126;2023-07-20T10:27:02;4.53;;;0.50;;
16967;SDS011;64862;54.398;10.126;2023-07-20T10:37:06;4.00;;;0.60;;
16967;SDS011;64862;54.398;10.126;2023-07-20T10:47:09;5.97;;;0.93;;
16967;SDS011;64862;54.398;10.126;2023-07-20T10:57:23;7.13;;;1.42;;
16967;SDS011;64862;54.398;10.126;2023-07-20T11:07:36;6.05;;;1.00;;
16967;SDS011;64862;54.398;10.126;2023-07-20T11:17:40;6.03;;;0.90;;
16967;SDS011;64862;54.398;10.126;2023-07-20T11:27:44;5.93;;;1.02;;
16967;SDS011;64862;54.398;10.126;2023-07-20T11:37:49;8.73;;;1.40;;
16967;SDS011;64862;54.398;10.126;2023-07-20T11:47:51;7.43;;;1.10;;
16967;SDS011;64862;54.398;10.126;2023-07-20T11:58:05;5.57;;;1.33;;
16967;SDS011;64862;54.398;10.126;2023-07-20T12:08:07;9.38;;;1.40;;
16967;SDS011;64862;54.398;10.126;2023-07-20T12:18:11;8.43;;;1.23;;
16967;SDS011;64862;54.398;10.126;2023-07-20T12:28:14;9.48;;;1.27;;
16967;SDS011;64862;54.398;10.126;2023-07-20T12:38:18;5.22;;;1.00;;
16967;SDS011;64862;54.398;10.126;2023-07-20T12:48:20;8.65;;;1.30;;
16967;SDS011;64862;54.398;10.126;2023-07-20T12:58:24;6.78;;;1.10;;
16967;SDS011;64862;54.398;10.126;2023-07-20T13:08:26;4.32;;;0.90;;
16967;SDS011;64862;54.398;10.126;2023-07-20T13:18:30;5.35;;;1.00;;
16967;SDS011;64862;54.398;10.126;2023-07-20T13:28:32;4.97;;;0.90;;
16967;SDS011;64862;54.398;10.126;2023-07-20T13:38:36;5.97;;;0.80;;
16967;SDS011;64862;54.398;10.126;2023-07-20T13:48:38;6.88;;;1.20;;
16967;SDS011;64862;54.398;10.126;2023-07-20T13:58:42;6.20;;;1.00;;
16967;SDS011;64862;54.398;10.126;2023-07-20T14:08:44;5.22;;;1.13;;
16967;SDS011;64862;54.398;10.126;2023-07-20T14:18:49;3.95;;;0.73;;
16967;SDS011;64862;54.398;10.126;2023-07-20T14:28:52;4.63;;;1.00;;
16967;SDS011;64862;54.398;10.126;2023-07-20T14:38:55;3.72;;;0.80;;
16967;SDS011;64862;54.398;10.126;2023-07-20T14:48:57;6.70;;;1.23;;
16967;SDS011;64862;54.398;10.126;2023-07-20T14:59:01;5.05;;;1.05;;
16967;SDS011;64862;54.398;10.126;2023-07-20T15:09:04;4.80;;;0.77;;
16967;SDS011;64862;54.398;10.126;2023-07-20T15:19:08;4.72;;;0.88;;
16967;SDS011;64862;54.398;10.126;2023-07-20T15:29:13;5.38;;;0.80;;
16967;SDS011;64862;54.398;10.126;2023-07-20T15:39:17;8.18;;;1.15;;
16967;SDS011;64862;54.398;10.126;2023-07-20T15:49:20;3.92;;;0.82;;
16967;SDS011;64862;54.398;10.126;2023-07-20T15:59:23;4.97;;;1.00;;
16967;SDS011;64862;54.398;10.126;2023-07-20T16:09:26;9.32;;;1.30;;
16967;SDS011;64862;54.398;10.126;2023-07-20T16:19:30;2.72;;;0.63;;
16967;SDS011;64862;54.398;10.126;2023-07-20T16:29:32;3.40;;;0.68;;
16967;SDS011;64862;54.398;10.126;2023-07-20T16:39:36;3.78;;;0.90;;
16967;SDS011;64862;54.398;10.126;2023-07-20T16:49:40;3.53;;;0.77;;
16967;SDS011;64862;54.398;10.126;2023-07-20T16:59:47;7.63;;;1.00;;
16967;SDS011;64862;54.398;10.126;2023-07-20T17:09:55;5.15;;;1.05;;
16967;SDS011;64862;54.398;10.126;2023-07-20T17:20:04;6.03;;;0.93;;
16967;SDS011;64862;54.398;10.126;2023-07-20T17:30:07;6.00;;;0.90;;
16967;SDS011;64862;54.398;10.126;2023-07-20T17:40:12;4.05;;;0.90;;
16967;SDS011;64862;54.398;10.126;2023-07-20T17:50:15;4.77;;;1.20;;
16967;SDS011;64862;54.398;10.126;2023-07-20T18:00:19;5.20;;;1.08;;
16967;SDS011;64862;54.398;10.126;2023-07-20T18:10:24;4.70;;;1.10;;
16967;SDS011;64862;54.398;10.126;2023-07-20T18:20:28;4.50;;;1.02;;
16967;SDS011;64862;54.398;10.126;2023-07-20T18:30:33;4.20;;;1.07;;
16967;SDS011;64862;54.398;10.126;2023-07-20T18:40:36;6.22;;;1.30;;
16967;SDS011;64862;54.398;10.126;2023-07-20T18:50:38;7.85;;;1.40;;
16967;SDS011;64862;54.398;10.126;2023-07-20T19:00:43;5.63;;;1.20;;
16967;SDS011;64862;54.398;10.126;2023-07-20T19:10:45;4.07;;;1.23;;
16967;SDS011;64862;54.398;10.126;2023-07-20T19:20:49;5.07;;;1.23;;
16967;SDS011;64862;54.398;10.126;2023-07-20T19:30:51;5.75;;;1.10;;
16967;SDS011;64862;54.398;10.126;2023-07-20T19:40:56;6.15;;;1.23;;
16967;SDS011;64862;54.398;10.126;2023-07-20T19:51:01;3.50;;;1.40;;
16967;SDS011;64862;54.398;10.126;2023-07-20T20:01:05;4.13;;;1.20;;
16967;SDS011;64862;54.398;10.126;2023-07-20T20:11:07;4.00;;;1.48;;
16967;SDS011;64862;54.398;10.126;2023-07-20T20:21:11;5.72;;;1.42;;
16967;SDS011;64862;54.398;10.126;2023-07-20T20:31:13;3.90;;;1.40;;
16967;SDS011;64862;54.398;10.126;2023-07-20T20:41:17;5.82;;;1.35;;
16967;SDS011;64862;54.398;10.126;2023-07-20T20:51:19;2.38;;;1.15;;
16967;SDS011;64862;54.398;10.126;2023-07-20T21:01:24;4.80;;;1.20;;
16967;SDS011;64862;54.398;10.126;2023-07-20T21:11:26;9.15;;;1.40;;
16967;SDS011;64862;54.398;10.126;2023-07-20T21:21:29;4.47;;;1.50;;
16967;SDS011;64862;54.398;10.126;2023-07-20T21:31:31;4.65;;;1.65;;
16967;SDS011;64862;54.398;10.126;2023-07-20T21:41:35;7.15;;;1.60;;
16967;SDS011;64862;54.398;10.126;2023-07-20T21:51:38;4.43;;;1.40;;
16967;SDS011;64862;54.398;10.126;2023-07-20T22:01:41;5.20;;;1.70;;
16967;SDS011;64862;54.398;10.126;2023-07-20T22:11:43;5.10;;;1.33;;
16967;SDS011;64862;54.398;10.126;2023-07-20T22:21:47;7.20;;;1.70;;
16967;SDS011;64862;54.398;10.126;2023-07-20T22:31:50;4.50;;;1.30;;
16967;SDS011;64862;54.398;10.126;2023-07-20T22:41:54;3.65;;;1.38;;
16967;SDS011;64862;54.398;10.126;2023-07-20T22:51:56;4.60;;;1.42;;
16967;SDS011;64862;54.398;10.126;2023-07-20T23:02:00;4.78;;;1.48;;
16967;SDS011;64862;54.398;10.126;2023-07-20T23:12:03;6.50;;;1.52;;
16967;SDS011;64862;54.398;10.126;2023-07-20T23:22:07;6.03;;;1.63;;
16967;SDS011;64862;54.398;10.126;2023-07-20T23:32:09;7.05;;;1.40;;
16967;SDS011;64862;54.398;10.126;2023-07-20T23:42:13;4.95;;;1.48;;
16967;SDS011;64862;54.398;10.126;2023-07-20T23:52:16;5.88;;;1.60;;
